createdAt,value
2022-09-15T00:03:47.831Z,15.98
2022-09-15T00:08:49.661Z,15.81
2022-09-15T00:13:52.670Z,15.71
2022-09-15T00:18:54.887Z,15.44
2022-09-15T00:23:57.101Z,15.20
2022-09-15T00:28:59.749Z,15.30
2022-09-15T00:34:05.147Z,15.22
2022-09-15T00:39:07.127Z,15.24
2022-09-15T00:44:36.300Z,15.24
2022-09-15T00:49:40.409Z,15.15
2022-09-15T00:54:54.686Z,15.21
2022-09-15T00:59:59.032Z,15.15
2022-09-15T01:05:03.163Z,15.11
2022-09-15T01:10:15.219Z,14.97
2022-09-15T01:15:16.961Z,15.06
2022-09-15T01:20:35.200Z,15.19
2022-09-15T01:25:56.084Z,15.11
2022-09-15T01:31:12.583Z,14.93
2022-09-15T01:36:25.560Z,15.08
2022-09-15T01:41:40.478Z,15.00
2022-09-15T01:46:47.725Z,14.76
2022-09-15T01:51:52.150Z,14.77
2022-09-15T01:56:53.689Z,14.68
2022-09-15T02:02:04.899Z,14.68
2022-09-15T02:07:23.638Z,14.64
2022-09-15T02:12:48.179Z,14.71
2022-09-15T02:17:54.071Z,14.68
2022-09-15T02:23:00.003Z,14.70
2022-09-15T02:28:07.111Z,14.81
2022-09-15T02:33:14.586Z,14.71
2022-09-15T02:38:16.127Z,14.63
2022-09-15T02:43:17.830Z,14.67
2022-09-15T02:48:19.531Z,14.62
2022-09-15T02:53:20.972Z,14.66
2022-09-15T02:58:22.479Z,14.71
2022-09-15T03:03:24.261Z,14.77
2022-09-15T03:08:27.936Z,14.77
2022-09-15T03:13:29.663Z,14.78
2022-09-15T03:18:31.144Z,14.81
2022-09-15T03:23:32.743Z,14.95
2022-09-15T03:28:35.550Z,14.97
2022-09-15T03:33:38.566Z,14.98
2022-09-15T03:38:40.035Z,15.07
2022-09-15T03:43:41.526Z,15.04
2022-09-15T03:48:42.990Z,15.06
2022-09-15T03:53:44.517Z,15.01
2022-09-15T03:58:45.963Z,15.08
2022-09-15T04:03:50.898Z,15.01
2022-09-15T04:08:53.392Z,15.20
2022-09-15T04:13:55.353Z,15.25
2022-09-15T04:18:56.888Z,15.23
2022-09-15T04:23:58.420Z,15.22
2022-09-15T04:29:04.227Z,16.46
2022-09-15T04:34:06.482Z,15.92
2022-09-15T04:39:08.355Z,15.53
2022-09-15T04:44:09.799Z,15.43
2022-09-15T04:49:11.232Z,15.47
2022-09-15T04:54:12.674Z,15.30
2022-09-15T04:59:16.877Z,15.02
2022-09-15T05:04:18.282Z,15.11
2022-09-15T05:09:19.754Z,14.82
2022-09-15T05:14:21.175Z,14.63
2022-09-15T05:19:22.568Z,14.67
2022-09-15T05:24:24.022Z,14.60
2022-09-15T05:29:25.618Z,14.67
2022-09-15T05:34:27.531Z,14.60
2022-09-15T05:39:29.371Z,14.77
2022-09-15T05:44:31.563Z,14.84
2022-09-15T05:49:33.864Z,15.01
2022-09-15T05:54:36.156Z,14.95
2022-09-15T05:59:39.122Z,15.07
2022-09-15T06:04:41.608Z,15.21
2022-09-15T06:09:43.917Z,15.20
2022-09-15T06:14:47.113Z,15.35
2022-09-15T06:19:49.294Z,15.44
2022-09-15T06:24:52.261Z,15.39
2022-09-15T06:29:54.247Z,15.49
2022-09-15T06:34:55.794Z,15.51
2022-09-15T06:39:57.398Z,15.58
2022-09-15T06:44:59.514Z,15.77
2022-09-15T06:50:01.368Z,15.65
2022-09-15T06:55:03.186Z,15.81
2022-09-15T07:00:06.631Z,15.81
2022-09-15T07:05:08.202Z,15.81
2022-09-15T07:10:09.914Z,15.91
2022-09-15T07:15:11.644Z,15.84
2022-09-15T07:20:13.481Z,15.94
2022-09-15T07:25:14.984Z,15.97
2022-09-15T07:30:16.472Z,16.11
2022-09-15T07:35:18.645Z,16.02
2022-09-15T07:40:20.341Z,16.07
2022-09-15T07:45:21.838Z,16.34
2022-09-15T07:50:23.497Z,16.52
2022-09-15T07:55:24.962Z,16.65
2022-09-15T08:00:27.826Z,16.98
2022-09-15T08:05:29.307Z,16.75
2022-09-15T08:10:30.737Z,16.73
2022-09-15T08:15:35.596Z,16.84
2022-09-15T08:20:43.981Z,16.78
2022-09-15T08:25:45.653Z,16.94
2022-09-15T08:30:47.163Z,17.09
2022-09-15T08:35:48.721Z,17.22
2022-09-15T08:40:51.075Z,17.53
2022-09-15T08:45:58.807Z,17.63
2022-09-15T08:51:06.257Z,17.54
2022-09-15T08:56:15.589Z,17.79
2022-09-15T09:01:17.192Z,17.96
2022-09-15T09:06:27.834Z,18.16
2022-09-15T09:11:37.705Z,18.12
2022-09-15T09:16:50.740Z,18.17
2022-09-15T09:22:15.408Z,17.85
2022-09-15T09:27:20.483Z,18.17
2022-09-15T09:32:26.246Z,18.43
2022-09-15T09:37:28.387Z,18.20
2022-09-15T09:42:33.581Z,18.39
2022-09-15T09:47:36.369Z,18.31
2022-09-15T09:52:39.181Z,18.18
2022-09-15T09:57:40.973Z,18.38
2022-09-15T10:02:48.308Z,18.56
2022-09-15T10:07:49.791Z,18.69
2022-09-15T10:12:55.687Z,18.86
2022-09-15T10:17:57.694Z,18.74
2022-09-15T10:23:05.250Z,18.79
2022-09-15T10:28:21.932Z,19.18
2022-09-15T10:33:26.343Z,19.08
2022-09-15T10:38:34.155Z,18.93
2022-09-15T10:43:56.661Z,18.89
2022-09-15T10:49:07.795Z,19.18
2022-09-15T10:54:09.826Z,19.09
2022-09-15T10:59:50.270Z,19.29
2022-09-15T11:05:10.878Z,19.50
2022-09-15T11:10:36.541Z,19.34
2022-09-15T11:15:48.251Z,19.35
2022-09-15T11:21:07.160Z,19.04
2022-09-15T11:26:42.195Z,19.06
2022-09-15T11:31:47.633Z,19.27
2022-09-15T11:37:10.039Z,19.48
2022-09-15T11:42:25.352Z,19.31
2022-09-15T11:47:35.169Z,19.29
2022-09-15T11:53:01.288Z,19.14
2022-09-15T11:58:36.143Z,19.45
2022-09-15T12:03:47.746Z,19.60
2022-09-15T12:09:00.698Z,19.31
2022-09-15T12:14:04.581Z,19.45
2022-09-15T12:19:25.285Z,19.33
2022-09-15T12:24:26.757Z,19.19
2022-09-15T12:29:28.147Z,19.47
2022-09-15T12:34:36.187Z,19.44
2022-09-15T12:39:42.055Z,19.25
2022-09-15T12:44:57.256Z,19.00
2022-09-15T12:50:22.217Z,18.91
2022-09-15T12:55:36.182Z,18.51
2022-09-15T13:01:00.609Z,18.49
2022-09-15T13:06:15.922Z,18.16
2022-09-15T13:11:23.386Z,18.01
2022-09-15T13:16:33.151Z,17.69
2022-09-15T13:21:38.220Z,17.57
2022-09-15T13:26:41.650Z,17.68
2022-09-15T13:31:56.247Z,17.88
2022-09-15T13:43:06.227Z,17.94
2022-09-15T13:48:39.632Z,17.85
2022-09-15T13:54:21.845Z,18.16
2022-09-15T13:59:27.573Z,18.21
2022-09-15T14:04:31.341Z,18.35
2022-09-15T14:09:39.485Z,18.38
2022-09-15T14:14:44.536Z,18.40
2022-09-15T14:19:54.508Z,18.46
2022-09-15T14:24:57.487Z,18.47
2022-09-15T14:30:03.301Z,18.58
2022-09-15T14:35:08.666Z,18.70
2022-09-15T14:40:24.798Z,18.74
2022-09-15T14:51:08.575Z,18.68
2022-09-15T14:56:18.338Z,18.76
2022-09-15T15:01:24.901Z,18.88
2022-09-15T15:06:35.264Z,18.81
2022-09-15T15:11:39.124Z,18.77
2022-09-15T15:16:57.514Z,18.86
2022-09-15T15:22:14.705Z,18.78
2022-09-15T15:27:34.809Z,18.85
2022-09-15T15:32:36.812Z,18.90
2022-09-15T15:37:38.408Z,18.91
2022-09-15T15:42:57.862Z,18.59
2022-09-15T15:48:03.751Z,18.58
2022-09-15T15:53:05.264Z,18.45
2022-09-15T15:58:07.383Z,18.39
2022-09-15T16:03:08.974Z,18.41
2022-09-15T16:08:19.407Z,18.41
2022-09-15T16:13:22.245Z,18.29
2022-09-15T16:18:24.039Z,18.06
2022-09-15T16:23:25.660Z,18.20
2022-09-15T16:28:28.701Z,18.01
2022-09-15T16:33:32.519Z,18.08
2022-09-15T16:38:37.948Z,18.01
2022-09-15T16:43:39.435Z,17.97
2022-09-15T16:48:42.779Z,18.06
2022-09-15T16:53:47.366Z,18.07
2022-09-15T16:58:48.829Z,18.16
2022-09-15T17:03:50.275Z,18.03
2022-09-15T17:08:51.759Z,17.99
2022-09-15T17:13:53.391Z,18.02
2022-09-15T17:18:54.901Z,17.92
2022-09-15T17:23:56.354Z,17.87
2022-09-15T17:28:58.198Z,17.70
2022-09-15T17:34:00.780Z,17.56
2022-09-15T17:39:02.185Z,17.60
2022-09-15T17:44:05.199Z,17.65
2022-09-15T17:49:06.681Z,17.50
2022-09-15T17:54:10.897Z,17.41
2022-09-15T17:59:15.718Z,17.40
2022-09-15T18:04:17.892Z,17.34
2022-09-15T18:09:19.381Z,17.35
2022-09-15T18:14:20.843Z,17.21
2022-09-15T18:19:22.294Z,17.21
2022-09-15T18:24:23.752Z,17.17
2022-09-15T18:29:25.843Z,17.22
2022-09-15T18:34:27.344Z,17.27
2022-09-15T18:39:29.372Z,17.03
2022-09-15T18:44:30.865Z,16.92
2022-09-15T18:49:32.378Z,16.99
2022-09-15T18:54:36.202Z,16.90
2022-09-15T18:59:38.743Z,16.89
2022-09-15T19:04:41.379Z,16.81
2022-09-15T19:09:42.835Z,16.80
2022-09-15T19:14:46.114Z,16.86
2022-09-15T19:19:48.450Z,16.81
2022-09-15T19:24:49.959Z,16.84
2022-09-15T19:29:51.490Z,16.73
2022-09-15T19:34:53.065Z,16.54
2022-09-15T19:39:54.771Z,16.38
2022-09-15T19:44:56.284Z,16.32
2022-09-15T19:49:58.085Z,16.28
2022-09-15T19:54:59.511Z,16.28
2022-09-15T20:00:01.111Z,16.26
2022-09-15T20:05:02.668Z,16.16
2022-09-15T20:10:04.430Z,16.28
2022-09-15T20:15:06.879Z,16.19
2022-09-15T20:20:10.636Z,16.10
2022-09-15T20:25:12.149Z,16.03
2022-09-15T20:30:14.208Z,15.90
2022-09-15T20:35:15.733Z,15.89
2022-09-15T20:40:17.504Z,15.79
2022-09-15T20:45:18.899Z,15.65
2022-09-15T20:50:20.443Z,15.65
2022-09-15T20:55:21.875Z,15.61
2022-09-15T21:00:24.023Z,15.50
2022-09-15T21:05:25.931Z,15.53
2022-09-15T21:10:27.398Z,15.56
2022-09-15T21:15:29.321Z,15.62
2022-09-15T21:20:30.746Z,15.53
2022-09-15T21:25:32.343Z,15.57
2022-09-15T21:30:33.746Z,15.58
2022-09-15T21:35:35.223Z,15.59
2022-09-15T21:40:36.763Z,15.53
2022-09-15T21:45:38.312Z,15.57
2022-09-15T21:50:50.196Z,15.50
2022-09-15T21:55:52.399Z,15.34
2022-09-15T22:00:53.994Z,15.21
2022-09-15T22:05:56.577Z,15.37
2022-09-15T22:11:01.198Z,15.39
2022-09-15T22:16:06.503Z,15.34
2022-09-15T22:21:18.030Z,15.44
2022-09-15T22:26:22.508Z,15.50
2022-09-15T22:31:24.960Z,15.17
2022-09-15T22:36:29.903Z,15.32
2022-09-15T22:41:35.210Z,15.41
2022-09-15T22:46:36.749Z,15.38
2022-09-15T22:51:38.144Z,15.21
2022-09-15T22:56:39.646Z,15.32
2022-09-15T23:01:41.126Z,15.22
2022-09-15T23:06:42.778Z,15.21
2022-09-15T23:11:44.410Z,15.22
2022-09-15T23:16:46.133Z,15.12
2022-09-15T23:21:47.948Z,15.27
2022-09-15T23:26:49.568Z,15.11
2022-09-15T23:31:51.065Z,15.17
2022-09-15T23:36:52.763Z,15.14
2022-09-15T23:41:54.316Z,15.09
2022-09-15T23:46:56.179Z,15.17
2022-09-15T23:51:58.880Z,15.19
2022-09-15T23:57:00.381Z,15.18
